sensor_id;sensor_type;location;lat;lon;timestamp;temperature;humidity
44747;DHT22;30472;49.490;10.972;2022-08-03T00:01:18;17.20;99.90
44747;DHT22;30472;49.490;10.972;2022-08-03T00:03:44;17.20;99.90
44747;DHT22;30472;49.490;10.972;2022-08-03T00:06:09;17.10;99.90
44747;DHT22;30472;49.490;10.972;2022-08-03T00:08:35;17.20;99.90
44747;DHT22;30472;49.490;10.972;2022-08-03T00:11:01;17.10;99.90
44747;DHT22;30472;49.490;10.972;2022-08-03T00:13:26;17.10;99.90
44747;DHT22;30472;49.490;10.972;2022-08-03T00:15:52;17.00;99.90
44747;DHT22;30472;49.490;10.972;2022-08-03T00:18:18;17.00;99.90
44747;DHT22;30472;49.490;10.972;2022-08-03T00:20:44;17.00;99.90
44747;DHT22;30472;49.490;10.972;2022-08-03T00:23:09;17.00;99.90
44747;DHT22;30472;49.490;10.972;2022-08-03T00:25:36;16.90;99.90
44747;DHT22;30472;49.490;10.972;2022-08-03T00:28:03;16.90;99.90
44747;DHT22;30472;49.490;10.972;2022-08-03T00:30:29;16.80;99.90
44747;DHT22;30472;49.490;10.972;2022-08-03T00:32:55;16.80;99.90
44747;DHT22;30472;49.490;10.972;2022-08-03T00:35:21;16.80;99.90
44747;DHT22;30472;49.490;10.972;2022-08-03T00:37:46;16.80;99.90
44747;DHT22;30472;49.490;10.972;2022-08-03T00:40:13;16.80;99.90
44747;DHT22;30472;49.490;10.972;2022-08-03T00:45:17;16.70;99.90
44747;DHT22;30472;49.490;10.972;2022-08-03T00:47:43;16.60;99.90
44747;DHT22;30472;49.490;10.972;2022-08-03T00:50:09;16.60;99.90
44747;DHT22;30472;49.490;10.972;2022-08-03T00:52:35;16.50;99.90
44747;DHT22;30472;49.490;10.972;2022-08-03T00:55:01;16.50;99.90
44747;DHT22;30472;49.490;10.972;2022-08-03T00:57:29;16.50;99.90
44747;DHT22;30472;49.490;10.972;2022-08-03T00:59:55;16.50;99.90
44747;DHT22;30472;49.490;10.972;2022-08-03T01:02:20;16.50;99.90
44747;DHT22;30472;49.490;10.972;2022-08-03T01:04:46;16.40;99.90
44747;DHT22;30472;49.490;10.972;2022-08-03T01:09:51;16.30;99.90
44747;DHT22;30472;49.490;10.972;2022-08-03T01:12:42;16.30;99.90
44747;DHT22;30472;49.490;10.972;2022-08-03T01:15:47;16.20;99.90
44747;DHT22;30472;49.490;10.972;2022-08-03T01:18:16;16.20;99.90
44747;DHT22;30472;49.490;10.972;2022-08-03T01:20:48;16.20;99.90
44747;DHT22;30472;49.490;10.972;2022-08-03T01:23:29;16.20;99.90
44747;DHT22;30472;49.490;10.972;2022-08-03T01:26:05;16.20;99.90
44747;DHT22;30472;49.490;10.972;2022-08-03T01:31:21;16.10;99.90
44747;DHT22;30472;49.490;10.972;2022-08-03T01:33:52;16.10;99.90
44747;DHT22;30472;49.490;10.972;2022-08-03T01:36:23;16.10;99.90
44747;DHT22;30472;49.490;10.972;2022-08-03T01:38:55;16.00;99.90
44747;DHT22;30472;49.490;10.972;2022-08-03T01:41:31;16.00;99.90
44747;DHT22;30472;49.490;10.972;2022-08-03T01:43:59;15.90;99.90
44747;DHT22;30472;49.490;10.972;2022-08-03T01:46:28;15.90;99.90
44747;DHT22;30472;49.490;10.972;2022-08-03T01:48:54;15.90;99.90
44747;DHT22;30472;49.490;10.972;2022-08-03T01:51:21;15.90;99.90
44747;DHT22;30472;49.490;10.972;2022-08-03T01:53:48;15.90;99.90
44747;DHT22;30472;49.490;10.972;2022-08-03T01:56:16;15.80;99.90
44747;DHT22;30472;49.490;10.972;2022-08-03T01:58:44;15.80;99.90
44747;DHT22;30472;49.490;10.972;2022-08-03T02:01:11;15.80;99.90
44747;DHT22;30472;49.490;10.972;2022-08-03T02:03:39;15.70;99.90
44747;DHT22;30472;49.490;10.972;2022-08-03T02:06:09;15.70;99.90
44747;DHT22;30472;49.490;10.972;2022-08-03T02:08:35;15.70;99.90
44747;DHT22;30472;49.490;10.972;2022-08-03T02:11:02;15.60;99.90
44747;DHT22;30472;49.490;10.972;2022-08-03T02:13:29;15.60;99.90
44747;DHT22;30472;49.490;10.972;2022-08-03T02:15:57;15.50;99.90
44747;DHT22;30472;49.490;10.972;2022-08-03T02:18:23;15.50;99.90
44747;DHT22;30472;49.490;10.972;2022-08-03T02:20:50;15.60;99.90
44747;DHT22;30472;49.490;10.972;2022-08-03T02:23:16;15.50;99.90
44747;DHT22;30472;49.490;10.972;2022-08-03T02:25:57;15.50;99.90
44747;DHT22;30472;49.490;10.972;2022-08-03T02:28:36;15.40;99.90
44747;DHT22;30472;49.490;10.972;2022-08-03T02:31:06;15.40;99.90
44747;DHT22;30472;49.490;10.972;2022-08-03T02:33:43;15.30;99.90
44747;DHT22;30472;49.490;10.972;2022-08-03T02:36:12;15.30;99.90
44747;DHT22;30472;49.490;10.972;2022-08-03T02:38:42;15.20;99.90
44747;DHT22;30472;49.490;10.972;2022-08-03T02:41:14;15.20;99.90
44747;DHT22;30472;49.490;10.972;2022-08-03T02:43:42;15.20;99.90
44747;DHT22;30472;49.490;10.972;2022-08-03T02:46:12;15.20;99.90
44747;DHT22;30472;49.490;10.972;2022-08-03T02:48:40;15.10;99.90
44747;DHT22;30472;49.490;10.972;2022-08-03T02:51:06;15.10;99.90
44747;DHT22;30472;49.490;10.972;2022-08-03T02:53:32;15.10;99.90
44747;DHT22;30472;49.490;10.972;2022-08-03T02:55:59;15.00;99.90
44747;DHT22;30472;49.490;10.972;2022-08-03T02:58:28;15.00;99.90
44747;DHT22;30472;49.490;10.972;2022-08-03T03:00:55;15.00;99.90
44747;DHT22;30472;49.490;10.972;2022-08-03T03:03:21;15.00;99.90
44747;DHT22;30472;49.490;10.972;2022-08-03T03:05:49;15.00;99.90
44747;DHT22;30472;49.490;10.972;2022-08-03T03:08:17;15.00;99.90
44747;DHT22;30472;49.490;10.972;2022-08-03T03:10:43;14.90;99.90
44747;DHT22;30472;49.490;10.972;2022-08-03T03:13:10;14.90;99.90
44747;DHT22;30472;49.490;10.972;2022-08-03T03:15:38;14.90;99.90
44747;DHT22;30472;49.490;10.972;2022-08-03T03:18:06;14.90;99.90
44747;DHT22;30472;49.490;10.972;2022-08-03T03:20:35;14.90;99.90
44747;DHT22;30472;49.490;10.972;2022-08-03T03:23:01;14.90;99.90
44747;DHT22;30472;49.490;10.972;2022-08-03T03:25:31;14.80;99.90
44747;DHT22;30472;49.490;10.972;2022-08-03T03:27:58;14.80;99.90
44747;DHT22;30472;49.490;10.972;2022-08-03T03:30:25;14.80;99.90
44747;DHT22;30472;49.490;10.972;2022-08-03T03:32:52;14.70;99.90
44747;DHT22;30472;49.490;10.972;2022-08-03T03:35:18;14.70;99.90
44747;DHT22;30472;49.490;10.972;2022-08-03T03:37:43;14.70;99.90
44747;DHT22;30472;49.490;10.972;2022-08-03T03:40:09;14.60;99.90
44747;DHT22;30472;49.490;10.972;2022-08-03T03:42:35;14.60;99.90
44747;DHT22;30472;49.490;10.972;2022-08-03T03:45:06;14.60;99.90
44747;DHT22;30472;49.490;10.972;2022-08-03T03:47:33;14.50;99.90
44747;DHT22;30472;49.490;10.972;2022-08-03T03:50:01;14.60;99.90
44747;DHT22;30472;49.490;10.972;2022-08-03T03:52:26;14.60;99.90
44747;DHT22;30472;49.490;10.972;2022-08-03T03:54:52;14.50;99.90
44747;DHT22;30472;49.490;10.972;2022-08-03T03:57:17;14.50;99.90
44747;DHT22;30472;49.490;10.972;2022-08-03T03:59:43;14.60;99.90
44747;DHT22;30472;49.490;10.972;2022-08-03T04:02:10;14.50;99.90
44747;DHT22;30472;49.490;10.972;2022-08-03T04:04:37;14.50;99.90
44747;DHT22;30472;49.490;10.972;2022-08-03T04:07:23;14.60;99.90
44747;DHT22;30472;49.490;10.972;2022-08-03T04:10:28;14.50;99.90
44747;DHT22;30472;49.490;10.972;2022-08-03T04:13:16;14.60;99.90
44747;DHT22;30472;49.490;10.972;2022-08-03T04:15:42;14.50;99.90
44747;DHT22;30472;49.490;10.972;2022-08-03T04:18:11;14.60;99.90
44747;DHT22;30472;49.490;10.972;2022-08-03T04:20:38;14.60;99.90
44747;DHT22;30472;49.490;10.972;2022-08-03T04:23:05;14.60;99.90
44747;DHT22;30472;49.490;10.972;2022-08-03T04:25:33;14.60;99.90
44747;DHT22;30472;49.490;10.972;2022-08-03T04:28:02;14.60;99.90
44747;DHT22;30472;49.490;10.972;2022-08-03T04:30:30;14.60;99.90
44747;DHT22;30472;49.490;10.972;2022-08-03T04:32:58;14.70;99.90
44747;DHT22;30472;49.490;10.972;2022-08-03T04:35:31;14.70;99.90
44747;DHT22;30472;49.490;10.972;2022-08-03T04:38:01;14.70;99.90
44747;DHT22;30472;49.490;10.972;2022-08-03T04:40:31;14.70;99.90
44747;DHT22;30472;49.490;10.972;2022-08-03T04:42:58;14.70;99.90
44747;DHT22;30472;49.490;10.972;2022-08-03T04:45:24;14.80;99.90
44747;DHT22;30472;49.490;10.972;2022-08-03T04:47:51;14.80;99.90
44747;DHT22;30472;49.490;10.972;2022-08-03T04:50:18;14.80;99.90
44747;DHT22;30472;49.490;10.972;2022-08-03T04:52:44;14.90;99.90
44747;DHT22;30472;49.490;10.972;2022-08-03T04:55:09;14.90;99.90
44747;DHT22;30472;49.490;10.972;2022-08-03T04:57:35;15.00;99.90
44747;DHT22;30472;49.490;10.972;2022-08-03T05:00:01;15.10;99.90
44747;DHT22;30472;49.490;10.972;2022-08-03T05:02:27;15.10;99.90
44747;DHT22;30472;49.490;10.972;2022-08-03T05:04:52;15.30;99.90
44747;DHT22;30472;49.490;10.972;2022-08-03T05:07:18;15.40;99.90
44747;DHT22;30472;49.490;10.972;2022-08-03T05:09:44;15.60;99.90
44747;DHT22;30472;49.490;10.972;2022-08-03T05:12:10;15.70;99.90
44747;DHT22;30472;49.490;10.972;2022-08-03T05:14:36;15.90;99.90
44747;DHT22;30472;49.490;10.972;2022-08-03T05:17:06;16.10;99.90
44747;DHT22;30472;49.490;10.972;2022-08-03T05:19:32;16.20;99.90
44747;DHT22;30472;49.490;10.972;2022-08-03T05:21:58;16.30;99.90
44747;DHT22;30472;49.490;10.972;2022-08-03T05:24:24;16.50;99.90
44747;DHT22;30472;49.490;10.972;2022-08-03T05:26:49;16.50;99.90
44747;DHT22;30472;49.490;10.972;2022-08-03T05:29:15;16.60;99.90
44747;DHT22;30472;49.490;10.972;2022-08-03T05:31:40;16.70;99.90
44747;DHT22;30472;49.490;10.972;2022-08-03T05:34:06;16.80;99.90
44747;DHT22;30472;49.490;10.972;2022-08-03T05:36:32;17.00;99.90
44747;DHT22;30472;49.490;10.972;2022-08-03T05:38:57;17.00;99.90
44747;DHT22;30472;49.490;10.972;2022-08-03T05:41:23;17.20;99.90
44747;DHT22;30472;49.490;10.972;2022-08-03T05:43:49;17.30;99.90
44747;DHT22;30472;49.490;10.972;2022-08-03T05:46:14;17.40;99.90
44747;DHT22;30472;49.490;10.972;2022-08-03T05:48:41;17.50;99.90
44747;DHT22;30472;49.490;10.972;2022-08-03T05:51:07;17.50;99.90
44747;DHT22;30472;49.490;10.972;2022-08-03T05:53:36;17.70;99.90
44747;DHT22;30472;49.490;10.972;2022-08-03T05:56:02;17.80;99.90
44747;DHT22;30472;49.490;10.972;2022-08-03T05:58:27;17.80;99.90
44747;DHT22;30472;49.490;10.972;2022-08-03T06:00:53;18.00;99.90
44747;DHT22;30472;49.490;10.972;2022-08-03T06:03:19;18.10;99.90
44747;DHT22;30472;49.490;10.972;2022-08-03T06:05:44;18.20;99.90
44747;DHT22;30472;49.490;10.972;2022-08-03T06:08:10;18.30;99.90
44747;DHT22;30472;49.490;10.972;2022-08-03T06:10:36;18.40;99.90
44747;DHT22;30472;49.490;10.972;2022-08-03T06:13:01;18.40;99.90
44747;DHT22;30472;49.490;10.972;2022-08-03T06:15:27;18.60;99.90
44747;DHT22;30472;49.490;10.972;2022-08-03T06:17:52;18.70;99.90
44747;DHT22;30472;49.490;10.972;2022-08-03T06:20:19;18.80;99.90
44747;DHT22;30472;49.490;10.972;2022-08-03T06:22:46;18.90;99.90
44747;DHT22;30472;49.490;10.972;2022-08-03T06:25:11;19.00;99.90
44747;DHT22;30472;49.490;10.972;2022-08-03T06:27:37;19.10;99.90
44747;DHT22;30472;49.490;10.972;2022-08-03T06:30:08;19.20;99.90
44747;DHT22;30472;49.490;10.972;2022-08-03T06:32:38;19.40;99.90
44747;DHT22;30472;49.490;10.972;2022-08-03T06:35:08;19.50;99.90
44747;DHT22;30472;49.490;10.972;2022-08-03T06:37:41;19.70;99.90
44747;DHT22;30472;49.490;10.972;2022-08-03T06:40:08;19.90;99.90
44747;DHT22;30472;49.490;10.972;2022-08-03T06:42:34;20.40;99.90
44747;DHT22;30472;49.490;10.972;2022-08-03T06:44:59;21.30;99.90
44747;DHT22;30472;49.490;10.972;2022-08-03T06:47:25;22.50;99.90
44747;DHT22;30472;49.490;10.972;2022-08-03T06:49:50;23.50;99.90
44747;DHT22;30472;49.490;10.972;2022-08-03T06:52:16;24.60;99.90
44747;DHT22;30472;49.490;10.972;2022-08-03T06:54:41;25.60;99.90
44747;DHT22;30472;49.490;10.972;2022-08-03T06:57:07;26.40;99.90
44747;DHT22;30472;49.490;10.972;2022-08-03T06:59:33;27.20;99.90
44747;DHT22;30472;49.490;10.972;2022-08-03T07:01:59;27.60;99.90
44747;DHT22;30472;49.490;10.972;2022-08-03T07:04:25;28.10;99.90
44747;DHT22;30472;49.490;10.972;2022-08-03T07:06:50;28.00;99.90
44747;DHT22;30472;49.490;10.972;2022-08-03T07:09:16;28.40;99.90
44747;DHT22;30472;49.490;10.972;2022-08-03T07:11:42;28.90;99.90
44747;DHT22;30472;49.490;10.972;2022-08-03T07:14:07;29.40;99.90
44747;DHT22;30472;49.490;10.972;2022-08-03T07:16:33;29.80;99.90
44747;DHT22;30472;49.490;10.972;2022-08-03T07:18:58;29.80;99.90
44747;DHT22;30472;49.490;10.972;2022-08-03T07:21:24;29.90;99.90
44747;DHT22;30472;49.490;10.972;2022-08-03T07:23:49;30.20;99.90
44747;DHT22;30472;49.490;10.972;2022-08-03T07:26:15;30.70;99.90
44747;DHT22;30472;49.490;10.972;2022-08-03T07:28:41;30.80;99.90
44747;DHT22;30472;49.490;10.972;2022-08-03T07:31:06;30.80;99.90
44747;DHT22;30472;49.490;10.972;2022-08-03T07:33:32;31.30;99.90
44747;DHT22;30472;49.490;10.972;2022-08-03T07:35:57;31.80;99.90
44747;DHT22;30472;49.490;10.972;2022-08-03T07:38:23;31.80;99.90
44747;DHT22;30472;49.490;10.972;2022-08-03T07:40:48;31.90;99.90
44747;DHT22;30472;49.490;10.972;2022-08-03T07:43:14;32.10;99.90
44747;DHT22;30472;49.490;10.972;2022-08-03T07:45:39;31.70;99.90
44747;DHT22;30472;49.490;10.972;2022-08-03T07:48:05;32.20;99.90
44747;DHT22;30472;49.490;10.972;2022-08-03T07:50:31;32.60;99.90
44747;DHT22;30472;49.490;10.972;2022-08-03T07:52:56;32.70;99.90
44747;DHT22;30472;49.490;10.972;2022-08-03T07:55:25;32.30;99.90
44747;DHT22;30472;49.490;10.972;2022-08-03T08:00:27;33.20;99.90
44747;DHT22;30472;49.490;10.972;2022-08-03T08:02:53;33.40;99.90
44747;DHT22;30472;49.490;10.972;2022-08-03T08:05:18;33.10;99.90
44747;DHT22;30472;49.490;10.972;2022-08-03T08:07:44;33.20;99.90
44747;DHT22;30472;49.490;10.972;2022-08-03T08:10:09;33.40;99.90
44747;DHT22;30472;49.490;10.972;2022-08-03T08:12:38;34.00;99.90
44747;DHT22;30472;49.490;10.972;2022-08-03T08:15:05;34.10;99.90
44747;DHT22;30472;49.490;10.972;2022-08-03T08:17:39;34.20;99.40
44747;DHT22;30472;49.490;10.972;2022-08-03T08:20:05;34.20;99.00
44747;DHT22;30472;49.490;10.972;2022-08-03T08:22:31;34.50;99.90
44747;DHT22;30472;49.490;10.972;2022-08-03T08:24:59;34.20;98.20
44747;DHT22;30472;49.490;10.972;2022-08-03T08:27:25;34.30;98.10
44747;DHT22;30472;49.490;10.972;2022-08-03T08:29:50;34.30;97.90
44747;DHT22;30472;49.490;10.972;2022-08-03T08:32:16;34.70;97.90
44747;DHT22;30472;49.490;10.972;2022-08-03T08:34:42;34.70;98.40
44747;DHT22;30472;49.490;10.972;2022-08-03T08:37:07;35.20;97.00
44747;DHT22;30472;49.490;10.972;2022-08-03T08:39:33;35.60;97.50
44747;DHT22;30472;49.490;10.972;2022-08-03T08:41:58;36.00;96.20
44747;DHT22;30472;49.490;10.972;2022-08-03T08:44:24;35.90;95.10
44747;DHT22;30472;49.490;10.972;2022-08-03T08:46:51;35.80;96.20
44747;DHT22;30472;49.490;10.972;2022-08-03T08:49:19;35.90;95.60
44747;DHT22;30472;49.490;10.972;2022-08-03T08:51:46;36.50;94.60
44747;DHT22;30472;49.490;10.972;2022-08-03T08:54:13;36.30;93.50
44747;DHT22;30472;49.490;10.972;2022-08-03T08:56:39;36.30;93.70
44747;DHT22;30472;49.490;10.972;2022-08-03T08:59:05;36.50;92.40
44747;DHT22;30472;49.490;10.972;2022-08-03T09:01:31;36.40;92.30
44747;DHT22;30472;49.490;10.972;2022-08-03T09:03:57;36.90;93.30
44747;DHT22;30472;49.490;10.972;2022-08-03T09:06:23;36.70;91.80
44747;DHT22;30472;49.490;10.972;2022-08-03T09:08:48;36.80;91.90
44747;DHT22;30472;49.490;10.972;2022-08-03T09:11:14;37.10;91.40
44747;DHT22;30472;49.490;10.972;2022-08-03T09:13:39;37.20;91.10
44747;DHT22;30472;49.490;10.972;2022-08-03T09:16:12;37.20;91.00
44747;DHT22;30472;49.490;10.972;2022-08-03T09:18:39;37.20;91.30
44747;DHT22;30472;49.490;10.972;2022-08-03T09:21:15;37.20;90.40
44747;DHT22;30472;49.490;10.972;2022-08-03T09:23:46;37.00;87.30
44747;DHT22;30472;49.490;10.972;2022-08-03T09:26:14;37.00;90.90
44747;DHT22;30472;49.490;10.972;2022-08-03T09:28:43;37.30;89.40
44747;DHT22;30472;49.490;10.972;2022-08-03T09:31:09;37.10;90.80
44747;DHT22;30472;49.490;10.972;2022-08-03T09:33:46;37.40;88.70
44747;DHT22;30472;49.490;10.972;2022-08-03T09:36:36;36.60;86.80
44747;DHT22;30472;49.490;10.972;2022-08-03T09:39:04;35.70;90.70
44747;DHT22;30472;49.490;10.972;2022-08-03T09:41:31;35.60;85.80
44747;DHT22;30472;49.490;10.972;2022-08-03T09:43:57;36.10;86.20
44747;DHT22;30472;49.490;10.972;2022-08-03T09:46:24;36.30;87.50
44747;DHT22;30472;49.490;10.972;2022-08-03T09:48:49;36.00;90.00
44747;DHT22;30472;49.490;10.972;2022-08-03T09:51:15;36.10;89.90
44747;DHT22;30472;49.490;10.972;2022-08-03T09:53:44;35.90;90.10
44747;DHT22;30472;49.490;10.972;2022-08-03T09:56:09;35.80;86.20
44747;DHT22;30472;49.490;10.972;2022-08-03T09:58:44;35.60;89.30
44747;DHT22;30472;49.490;10.972;2022-08-03T10:01:10;35.70;87.30
44747;DHT22;30472;49.490;10.972;2022-08-03T10:03:37;35.60;88.60
44747;DHT22;30472;49.490;10.972;2022-08-03T10:06:18;35.70;88.90
44747;DHT22;30472;49.490;10.972;2022-08-03T10:08:45;35.80;87.10
44747;DHT22;30472;49.490;10.972;2022-08-03T10:11:11;35.20;84.50
44747;DHT22;30472;49.490;10.972;2022-08-03T10:13:37;34.70;87.20
44747;DHT22;30472;49.490;10.972;2022-08-03T10:16:04;34.70;89.70
44747;DHT22;30472;49.490;10.972;2022-08-03T10:18:30;34.60;88.30
44747;DHT22;30472;49.490;10.972;2022-08-03T10:21:02;34.70;87.90
44747;DHT22;30472;49.490;10.972;2022-08-03T10:23:30;34.70;88.40
44747;DHT22;30472;49.490;10.972;2022-08-03T10:26:01;34.60;88.30
44747;DHT22;30472;49.490;10.972;2022-08-03T10:28:33;34.80;88.30
44747;DHT22;30472;49.490;10.972;2022-08-03T10:31:00;34.50;85.90
44747;DHT22;30472;49.490;10.972;2022-08-03T10:33:27;34.20;83.70
44747;DHT22;30472;49.490;10.972;2022-08-03T10:35:56;34.40;85.50
44747;DHT22;30472;49.490;10.972;2022-08-03T10:38:39;34.60;84.20
44747;DHT22;30472;49.490;10.972;2022-08-03T10:41:07;34.80;85.60
44747;DHT22;30472;49.490;10.972;2022-08-03T10:43:52;35.20;89.00
44747;DHT22;30472;49.490;10.972;2022-08-03T10:46:20;34.80;82.80
44747;DHT22;30472;49.490;10.972;2022-08-03T10:48:47;34.60;83.00
44747;DHT22;30472;49.490;10.972;2022-08-03T10:51:14;34.30;83.60
44747;DHT22;30472;49.490;10.972;2022-08-03T10:53:41;34.50;83.20
44747;DHT22;30472;49.490;10.972;2022-08-03T11:02:15;34.60;80.00
44747;DHT22;30472;49.490;10.972;2022-08-03T11:04:41;34.10;82.80
44747;DHT22;30472;49.490;10.972;2022-08-03T11:07:22;34.30;80.10
44747;DHT22;30472;49.490;10.972;2022-08-03T11:09:50;34.20;79.50
44747;DHT22;30472;49.490;10.972;2022-08-03T11:14:53;34.80;79.80
44747;DHT22;30472;49.490;10.972;2022-08-03T11:17:19;34.90;80.10
44747;DHT22;30472;49.490;10.972;2022-08-03T11:19:46;34.90;79.50
44747;DHT22;30472;49.490;10.972;2022-08-03T11:22:12;35.00;83.80
44747;DHT22;30472;49.490;10.972;2022-08-03T11:35:15;35.10;78.70
44747;DHT22;30472;49.490;10.972;2022-08-03T11:43:08;35.30;78.00
44747;DHT22;30472;49.490;10.972;2022-08-03T11:45:35;35.30;78.50
44747;DHT22;30472;49.490;10.972;2022-08-03T11:48:15;35.10;76.80
44747;DHT22;30472;49.490;10.972;2022-08-03T11:50:41;35.10;77.40
44747;DHT22;30472;49.490;10.972;2022-08-03T11:53:13;35.00;78.50
44747;DHT22;30472;49.490;10.972;2022-08-03T11:55:41;35.10;80.00
44747;DHT22;30472;49.490;10.972;2022-08-03T11:58:17;34.90;77.60
44747;DHT22;30472;49.490;10.972;2022-08-03T12:00:43;34.90;79.50
44747;DHT22;30472;49.490;10.972;2022-08-03T12:03:14;34.80;76.90
44747;DHT22;30472;49.490;10.972;2022-08-03T12:05:51;34.60;78.30
44747;DHT22;30472;49.490;10.972;2022-08-03T12:08:30;34.80;78.40
44747;DHT22;30472;49.490;10.972;2022-08-03T12:10:58;34.10;76.80
44747;DHT22;30472;49.490;10.972;2022-08-03T12:13:24;33.90;78.70
44747;DHT22;30472;49.490;10.972;2022-08-03T12:15:54;34.30;78.70
44747;DHT22;30472;49.490;10.972;2022-08-03T12:18:22;34.70;77.00
44747;DHT22;30472;49.490;10.972;2022-08-03T12:20:49;34.80;77.70
44747;DHT22;30472;49.490;10.972;2022-08-03T12:23:15;34.80;77.00
44747;DHT22;30472;49.490;10.972;2022-08-03T12:25:43;35.20;78.30
44747;DHT22;30472;49.490;10.972;2022-08-03T12:28:20;35.50;77.20
44747;DHT22;30472;49.490;10.972;2022-08-03T12:30:50;35.60;75.80
44747;DHT22;30472;49.490;10.972;2022-08-03T12:33:23;35.70;74.90
44747;DHT22;30472;49.490;10.972;2022-08-03T12:36:07;36.00;76.80
44747;DHT22;30472;49.490;10.972;2022-08-03T12:38:35;36.00;74.20
44747;DHT22;30472;49.490;10.972;2022-08-03T12:41:06;35.50;74.60
44747;DHT22;30472;49.490;10.972;2022-08-03T12:43:33;35.80;75.40
44747;DHT22;30472;49.490;10.972;2022-08-03T12:46:13;35.30;73.90
44747;DHT22;30472;49.490;10.972;2022-08-03T12:49:14;35.40;74.60
44747;DHT22;30472;49.490;10.972;2022-08-03T12:54:09;36.00;75.20
44747;DHT22;30472;49.490;10.972;2022-08-03T12:59:26;36.20;75.50
44747;DHT22;30472;49.490;10.972;2022-08-03T13:01:52;36.20;74.70
44747;DHT22;30472;49.490;10.972;2022-08-03T13:04:33;36.20;75.00
44747;DHT22;30472;49.490;10.972;2022-08-03T13:07:04;35.80;73.20
44747;DHT22;30472;49.490;10.972;2022-08-03T13:09:43;35.80;75.30
44747;DHT22;30472;49.490;10.972;2022-08-03T13:12:14;35.90;73.80
44747;DHT22;30472;49.490;10.972;2022-08-03T13:14:44;35.50;75.70
44747;DHT22;30472;49.490;10.972;2022-08-03T13:17:10;35.60;74.40
44747;DHT22;30472;49.490;10.972;2022-08-03T13:19:36;35.70;74.50
44747;DHT22;30472;49.490;10.972;2022-08-03T13:22:16;35.60;72.50
44747;DHT22;30472;49.490;10.972;2022-08-03T13:24:43;35.70;73.30
44747;DHT22;30472;49.490;10.972;2022-08-03T13:27:10;35.80;73.10
44747;DHT22;30472;49.490;10.972;2022-08-03T13:29:35;35.50;73.50
44747;DHT22;30472;49.490;10.972;2022-08-03T13:32:02;35.90;72.80
44747;DHT22;30472;49.490;10.972;2022-08-03T13:34:27;36.00;73.00
44747;DHT22;30472;49.490;10.972;2022-08-03T13:36:53;36.20;74.00
44747;DHT22;30472;49.490;10.972;2022-08-03T13:39:19;36.10;72.90
44747;DHT22;30472;49.490;10.972;2022-08-03T13:41:45;36.40;72.40
44747;DHT22;30472;49.490;10.972;2022-08-03T13:44:11;36.30;73.80
44747;DHT22;30472;49.490;10.972;2022-08-03T13:46:37;36.20;74.60
44747;DHT22;30472;49.490;10.972;2022-08-03T13:49:02;35.90;72.60
44747;DHT22;30472;49.490;10.972;2022-08-03T13:51:28;35.70;73.40
44747;DHT22;30472;49.490;10.972;2022-08-03T13:53:54;35.70;72.20
44747;DHT22;30472;49.490;10.972;2022-08-03T13:56:20;35.60;73.70
44747;DHT22;30472;49.490;10.972;2022-08-03T13:58:45;35.50;72.90
44747;DHT22;30472;49.490;10.972;2022-08-03T14:01:11;35.80;72.80
44747;DHT22;30472;49.490;10.972;2022-08-03T14:03:37;35.90;71.60
44747;DHT22;30472;49.490;10.972;2022-08-03T14:06:02;35.70;71.20
44747;DHT22;30472;49.490;10.972;2022-08-03T14:08:28;35.80;73.00
44747;DHT22;30472;49.490;10.972;2022-08-03T14:10:54;35.60;73.20
44747;DHT22;30472;49.490;10.972;2022-08-03T14:13:20;35.30;73.10
44747;DHT22;30472;49.490;10.972;2022-08-03T14:15:46;35.30;73.40
44747;DHT22;30472;49.490;10.972;2022-08-03T14:18:12;35.30;74.00
44747;DHT22;30472;49.490;10.972;2022-08-03T14:20:38;35.50;72.70
44747;DHT22;30472;49.490;10.972;2022-08-03T14:23:03;35.30;74.30
44747;DHT22;30472;49.490;10.972;2022-08-03T14:25:29;35.40;75.20
44747;DHT22;30472;49.490;10.972;2022-08-03T14:27:56;35.40;74.20
44747;DHT22;30472;49.490;10.972;2022-08-03T14:30:21;35.60;72.50
44747;DHT22;30472;49.490;10.972;2022-08-03T14:32:47;35.70;72.70
44747;DHT22;30472;49.490;10.972;2022-08-03T14:35:12;35.60;72.80
44747;DHT22;30472;49.490;10.972;2022-08-03T14:37:38;35.70;71.90
44747;DHT22;30472;49.490;10.972;2022-08-03T14:40:04;35.50;73.00
44747;DHT22;30472;49.490;10.972;2022-08-03T14:42:30;35.40;73.00
44747;DHT22;30472;49.490;10.972;2022-08-03T14:44:56;35.30;72.90
44747;DHT22;30472;49.490;10.972;2022-08-03T14:47:21;35.10;72.10
44747;DHT22;30472;49.490;10.972;2022-08-03T14:49:47;35.10;73.70
44747;DHT22;30472;49.490;10.972;2022-08-03T14:52:12;35.20;72.20
44747;DHT22;30472;49.490;10.972;2022-08-03T14:54:38;35.20;73.10
44747;DHT22;30472;49.490;10.972;2022-08-03T14:57:04;35.20;73.90
44747;DHT22;30472;49.490;10.972;2022-08-03T14:59:29;35.10;73.20
44747;DHT22;30472;49.490;10.972;2022-08-03T15:01:55;34.90;71.80
44747;DHT22;30472;49.490;10.972;2022-08-03T15:04:20;35.00;72.70
44747;DHT22;30472;49.490;10.972;2022-08-03T15:06:46;35.10;72.60
44747;DHT22;30472;49.490;10.972;2022-08-03T15:09:11;34.80;71.50
44747;DHT22;30472;49.490;10.972;2022-08-03T15:11:37;34.70;73.70
44747;DHT22;30472;49.490;10.972;2022-08-03T15:14:06;34.10;72.00
44747;DHT22;30472;49.490;10.972;2022-08-03T15:16:37;34.10;73.00
44747;DHT22;30472;49.490;10.972;2022-08-03T15:19:03;34.00;74.00
44747;DHT22;30472;49.490;10.972;2022-08-03T15:21:29;33.70;73.40
44747;DHT22;30472;49.490;10.972;2022-08-03T15:23:58;33.50;74.10
44747;DHT22;30472;49.490;10.972;2022-08-03T15:26:24;33.60;75.00
44747;DHT22;30472;49.490;10.972;2022-08-03T15:28:52;33.40;74.30
44747;DHT22;30472;49.490;10.972;2022-08-03T15:31:22;33.50;73.50
44747;DHT22;30472;49.490;10.972;2022-08-03T15:33:48;33.60;74.00
44747;DHT22;30472;49.490;10.972;2022-08-03T15:36:18;33.80;74.20
44747;DHT22;30472;49.490;10.972;2022-08-03T15:38:44;33.90;74.20
44747;DHT22;30472;49.490;10.972;2022-08-03T15:41:12;33.80;72.80
44747;DHT22;30472;49.490;10.972;2022-08-03T15:43:39;33.90;72.50
44747;DHT22;30472;49.490;10.972;2022-08-03T15:46:05;33.90;74.00
44747;DHT22;30472;49.490;10.972;2022-08-03T15:48:30;34.00;73.40
44747;DHT22;30472;49.490;10.972;2022-08-03T15:50:56;34.00;72.40
44747;DHT22;30472;49.490;10.972;2022-08-03T15:53:22;34.00;74.20
44747;DHT22;30472;49.490;10.972;2022-08-03T15:55:48;34.10;73.50
44747;DHT22;30472;49.490;10.972;2022-08-03T15:58:13;34.10;73.30
44747;DHT22;30472;49.490;10.972;2022-08-03T16:00:40;34.10;73.00